createdAt,value
2022-08-01T00:00:09.003Z,61.11
2022-08-01T00:02:37.557Z,61.22
2022-08-01T00:05:06.986Z,61.29
2022-08-01T00:07:34.445Z,60.99
2022-08-01T00:10:01.561Z,60.93
2022-08-01T00:12:28.306Z,60.85
2022-08-01T00:14:54.999Z,61.08
2022-08-01T00:17:21.647Z,60.95
2022-08-01T00:19:48.242Z,60.84
2022-08-01T00:22:14.828Z,61.22
2022-08-01T00:24:41.475Z,60.91
2022-08-01T00:27:08.061Z,61.18
2022-08-01T00:30:12.532Z,60.91
2022-08-01T00:32:21.371Z,60.28
2022-08-01T00:34:47.961Z,60.38
2022-08-01T00:37:16.308Z,60.62
2022-08-01T00:39:43.619Z,61.12
2022-08-01T00:42:13.645Z,61.72
2022-08-01T00:44:41.042Z,62.36
2022-08-01T00:47:08.306Z,62.59
2022-08-01T00:49:35.138Z,62.80
2022-08-01T00:52:05.645Z,62.73
2022-08-01T00:54:32.669Z,62.68
2022-08-01T00:56:59.682Z,62.74
2022-08-01T00:59:26.519Z,62.62
2022-08-01T01:01:53.729Z,62.51
2022-08-01T01:04:20.499Z,62.25
2022-08-01T01:07:17.326Z,100.00
2022-08-01T01:09:47.258Z,100.00
2022-08-01T01:12:26.081Z,100.00
2022-08-01T01:15:13.737Z,100.00
2022-08-01T01:17:50.961Z,100.00
2022-08-01T01:20:19.126Z,100.00
2022-08-01T01:22:52.940Z,100.00
2022-08-01T01:25:37.853Z,100.00
2022-08-01T01:28:36.771Z,100.00
2022-08-01T01:31:05.287Z,100.00
2022-08-01T01:33:33.257Z,100.00
2022-08-01T01:36:02.629Z,100.00
2022-08-01T01:38:30.942Z,100.00
2022-08-01T01:40:58.299Z,100.00
2022-08-01T01:43:28.885Z,100.00
2022-08-01T01:46:00.135Z,100.00
2022-08-01T01:48:27.575Z,100.00
2022-08-01T01:50:54.615Z,100.00
2022-08-01T01:53:22.643Z,100.00
2022-08-01T01:55:53.307Z,100.00
2022-08-01T01:58:21.465Z,100.00
2022-08-01T02:00:49.566Z,100.00
2022-08-01T02:03:19.021Z,100.00
2022-08-01T02:05:46.287Z,100.00
2022-08-01T02:08:16.116Z,100.00
2022-08-01T02:11:03.745Z,100.00
2022-08-01T02:13:33.111Z,100.00
2022-08-01T02:16:00.830Z,100.00
2022-08-01T02:18:27.799Z,100.00
2022-08-01T02:20:55.880Z,100.00
2022-08-01T02:23:24.617Z,100.00
2022-08-01T02:26:10.323Z,100.00
2022-08-01T02:28:44.661Z,100.00
2022-08-01T02:31:17.226Z,100.00
2022-08-01T02:33:48.292Z,100.00
2022-08-01T02:36:31.244Z,100.00
2022-08-01T02:39:02.112Z,100.00
2022-08-01T02:41:30.341Z,100.00
2022-08-01T02:44:00.580Z,100.00
2022-08-01T02:46:34.254Z,100.00
2022-08-01T02:49:02.096Z,100.00
2022-08-01T02:51:30.179Z,100.00
2022-08-01T02:53:57.732Z,100.00
2022-08-01T02:56:25.215Z,100.00
2022-08-01T02:58:52.928Z,100.00
2022-08-01T03:01:21.045Z,100.00
2022-08-01T03:03:47.877Z,100.00
2022-08-01T03:06:15.691Z,100.00
2022-08-01T03:08:42.920Z,100.00
2022-08-01T03:11:09.778Z,100.00
2022-08-01T03:13:36.571Z,100.00
2022-08-01T03:16:03.643Z,100.00
2022-08-01T03:18:30.907Z,100.00
2022-08-01T03:20:57.955Z,100.00
2022-08-01T03:23:37.751Z,100.00
2022-08-01T03:26:05.129Z,100.00
2022-08-01T03:28:31.911Z,100.00
2022-08-01T03:31:00.735Z,100.00
2022-08-01T03:33:27.594Z,100.00
2022-08-01T03:35:55.732Z,100.00
2022-08-01T03:38:27.513Z,100.00
2022-08-01T03:41:00.647Z,100.00
2022-08-01T03:43:56.188Z,100.00
2022-08-01T03:46:34.108Z,100.00
2022-08-01T03:49:04.177Z,100.00
2022-08-01T03:51:31.699Z,100.00
2022-08-01T03:54:00.736Z,100.00
2022-08-01T03:56:28.636Z,100.00
2022-08-01T03:58:55.372Z,100.00
2022-08-01T04:01:22.528Z,100.00
2022-08-01T04:03:49.982Z,100.00
2022-08-01T04:06:16.618Z,100.00
2022-08-01T04:08:43.331Z,100.00
2022-08-01T04:11:10.433Z,100.00
2022-08-01T04:13:38.486Z,100.00
2022-08-01T04:16:05.792Z,100.00
2022-08-01T04:18:33.117Z,100.00
2022-08-01T04:20:59.836Z,100.00
2022-08-01T04:23:28.109Z,100.00
2022-08-01T04:25:55.652Z,100.00
2022-08-01T04:28:23.212Z,100.00
2022-08-01T04:30:51.490Z,100.00
2022-08-01T04:33:19.052Z,100.00
2022-08-01T04:36:01.582Z,100.00
2022-08-01T04:38:32.443Z,100.00
2022-08-01T04:40:59.492Z,100.00
2022-08-01T04:43:37.215Z,100.00
2022-08-01T04:46:05.046Z,100.00
2022-08-01T04:48:33.948Z,100.00
2022-08-01T04:51:00.716Z,100.00
2022-08-01T04:53:27.720Z,100.00
2022-08-01T04:55:54.731Z,100.00
2022-08-01T04:58:21.398Z,100.00
2022-08-01T05:00:48.618Z,65.97
2022-08-01T05:03:15.323Z,65.28
2022-08-01T05:05:41.906Z,63.74
2022-08-01T05:08:08.513Z,63.21
2022-08-01T05:10:35.372Z,62.33
2022-08-01T05:13:02.093Z,62.01
2022-08-01T05:15:28.753Z,61.73
2022-08-01T05:17:55.606Z,60.85
2022-08-01T05:20:22.369Z,60.54
2022-08-01T05:22:49.189Z,60.64
2022-08-01T05:25:20.600Z,60.61
2022-08-01T05:28:02.539Z,60.50
2022-08-01T05:30:30.108Z,60.16
2022-08-01T05:32:56.729Z,60.26
2022-08-01T05:35:24.113Z,59.96
2022-08-01T05:38:12.591Z,59.89
2022-08-01T05:40:41.762Z,59.79
2022-08-01T05:43:08.332Z,59.55
2022-08-01T05:45:34.957Z,59.41
2022-08-01T05:48:01.555Z,58.46
2022-08-01T05:50:28.139Z,58.23
2022-08-01T05:52:54.835Z,58.01
2022-08-01T05:55:21.397Z,58.12
2022-08-01T05:57:48.001Z,58.11
2022-08-01T06:00:15.716Z,58.42
2022-08-01T06:02:43.875Z,58.80
2022-08-01T06:05:13.232Z,58.74
2022-08-01T06:07:40.812Z,58.83
2022-08-01T06:10:08.561Z,58.91
2022-08-01T06:12:35.894Z,58.62
2022-08-01T06:15:06.080Z,58.38
2022-08-01T06:17:32.726Z,58.77
2022-08-01T06:19:59.359Z,59.08
2022-08-01T06:22:26.060Z,58.95
2022-08-01T06:24:52.733Z,58.52
2022-08-01T06:27:22.088Z,58.36
2022-08-01T06:29:53.419Z,58.43
2022-08-01T06:32:26.352Z,58.26
2022-08-01T06:34:55.785Z,58.86
2022-08-01T06:37:22.776Z,59.06
2022-08-01T06:39:50.675Z,59.54
2022-08-01T06:42:17.782Z,59.67
2022-08-01T06:44:44.414Z,59.80
2022-08-01T06:47:11.089Z,60.16
2022-08-01T06:49:37.976Z,60.07
2022-08-01T06:52:05.499Z,59.82
2022-08-01T06:54:32.342Z,60.08
2022-08-01T06:56:58.967Z,59.76
2022-08-01T06:59:25.656Z,59.81
2022-08-01T07:01:52.309Z,59.77
2022-08-01T07:04:18.956Z,59.96
2022-08-01T07:06:45.572Z,60.41
2022-08-01T07:09:14.383Z,59.66
2022-08-01T07:11:41.812Z,60.10
2022-08-01T07:14:08.723Z,59.75
2022-08-01T07:16:35.489Z,59.58
2022-08-01T07:19:02.112Z,59.47
2022-08-01T07:21:39.111Z,59.14
2022-08-01T07:24:13.258Z,100.00
2022-08-01T07:26:52.354Z,100.00
2022-08-01T07:29:25.026Z,100.00
2022-08-01T07:31:56.436Z,100.00
2022-08-01T07:34:23.863Z,100.00
2022-08-01T07:36:51.407Z,100.00
2022-08-01T07:39:18.023Z,100.00
2022-08-01T07:41:52.725Z,100.00
2022-08-01T07:44:31.226Z,100.00
2022-08-01T07:46:57.827Z,100.00
2022-08-01T07:49:24.432Z,100.00
2022-08-01T07:52:02.729Z,100.00
2022-08-01T07:54:35.087Z,100.00
2022-08-01T07:57:03.556Z,56.78
2022-08-01T07:59:30.509Z,56.65
2022-08-01T08:01:57.484Z,57.52
2022-08-01T08:04:24.112Z,56.80
2022-08-01T08:06:50.798Z,56.93
2022-08-01T08:09:17.474Z,56.61
2022-08-01T08:11:47.709Z,56.74
2022-08-01T08:14:16.043Z,56.80
2022-08-01T08:16:43.532Z,56.07
2022-08-01T08:19:10.362Z,56.60
2022-08-01T08:21:38.800Z,56.53
2022-08-01T08:24:26.909Z,56.51
2022-08-01T08:27:01.370Z,56.58
2022-08-01T08:29:30.670Z,56.75
2022-08-01T08:31:58.711Z,56.71
2022-08-01T08:34:27.255Z,56.91
2022-08-01T08:36:55.638Z,56.62
2022-08-01T08:39:22.311Z,100.00
2022-08-01T08:41:50.113Z,100.00
2022-08-01T08:44:18.105Z,100.00
2022-08-01T08:46:48.067Z,100.00
2022-08-01T08:49:23.207Z,100.00
2022-08-01T08:51:51.630Z,100.00
2022-08-01T08:54:21.793Z,100.00
2022-08-01T08:56:48.585Z,100.00
2022-08-01T08:59:15.357Z,100.00
2022-08-01T09:01:43.045Z,100.00
2022-08-01T09:04:10.337Z,100.00
2022-08-01T09:06:36.993Z,100.00
2022-08-01T09:09:04.205Z,100.00
2022-08-01T09:11:31.093Z,100.00
2022-08-01T09:14:10.213Z,100.00
2022-08-01T09:16:40.122Z,100.00
2022-08-01T09:19:16.334Z,100.00
2022-08-01T09:22:00.140Z,100.00
2022-08-01T09:24:31.778Z,100.00
2022-08-01T09:26:59.736Z,100.00
2022-08-01T09:29:37.577Z,100.00
2022-08-01T09:32:14.008Z,100.00
2022-08-01T09:34:42.879Z,100.00
2022-08-01T09:37:10.698Z,100.00
2022-08-01T09:39:41.151Z,100.00
2022-08-01T09:42:28.352Z,100.00
2022-08-01T09:44:56.492Z,100.00
2022-08-01T09:47:25.336Z,100.00
2022-08-01T09:49:57.410Z,100.00
2022-08-01T09:52:28.807Z,100.00
2022-08-01T09:55:02.171Z,100.00
2022-08-01T09:57:30.108Z,100.00
2022-08-01T10:00:01.714Z,100.00
2022-08-01T10:02:40.996Z,63.86
2022-08-01T10:05:10.589Z,64.26
2022-08-01T10:07:58.014Z,64.15
2022-08-01T10:10:29.043Z,64.30
2022-08-01T10:12:57.557Z,64.67
2022-08-01T10:15:24.902Z,64.27
2022-08-01T10:18:16.400Z,63.75
2022-08-01T10:20:53.243Z,100.00
2022-08-01T10:23:40.469Z,100.00
2022-08-01T10:26:09.071Z,100.00
2022-08-01T10:28:38.669Z,100.00
2022-08-01T10:31:12.556Z,100.00
2022-08-01T10:33:51.365Z,100.00
2022-08-01T10:36:21.345Z,100.00
2022-08-01T10:38:49.633Z,100.00
2022-08-01T10:41:16.613Z,100.00
2022-08-01T10:43:46.864Z,100.00
2022-08-01T10:46:14.235Z,100.00
2022-08-01T10:49:04.357Z,100.00
2022-08-01T10:51:51.981Z,100.00
2022-08-01T10:54:17.927Z,100.00
2022-08-01T10:56:45.985Z,100.00
2022-08-01T10:59:49.170Z,58.09
2022-08-01T11:02:12.492Z,59.87
2022-08-01T11:04:41.851Z,60.80
2022-08-01T11:07:25.700Z,100.00
2022-08-01T11:10:31.541Z,100.00
2022-08-01T11:13:02.072Z,65.49
2022-08-01T11:15:31.671Z,66.80
2022-08-01T11:18:00.577Z,68.75
2022-08-01T11:20:32.601Z,70.18
2022-08-01T11:23:07.188Z,70.41
2022-08-01T11:26:03.173Z,71.68
2022-08-01T11:28:32.133Z,72.95
2022-08-01T11:31:14.286Z,73.73
2022-08-01T11:33:46.173Z,73.42
2022-08-01T11:36:14.735Z,73.16
2022-08-01T11:38:44.700Z,73.84
2022-08-01T11:41:12.663Z,73.23
2022-08-01T11:44:13.080Z,73.25
2022-08-01T11:46:49.667Z,73.73
2022-08-01T11:49:39.415Z,74.02
2022-08-01T11:52:15.558Z,74.59
2022-08-01T11:54:48.390Z,74.89
2022-08-01T11:57:33.864Z,74.90
2022-08-01T12:00:04.712Z,72.94
2022-08-01T12:02:41.961Z,73.52
2022-08-01T12:05:14.101Z,72.07
2022-08-01T12:07:43.133Z,72.07
2022-08-01T12:10:17.360Z,71.84
2022-08-01T12:12:49.639Z,100.00
2022-08-01T12:15:17.666Z,100.00
2022-08-01T12:18:00.757Z,100.00
2022-08-01T12:20:30.560Z,100.00
2022-08-01T12:22:59.875Z,100.00
2022-08-01T12:25:26.553Z,100.00
2022-08-01T12:27:56.486Z,100.00
2022-08-01T12:30:24.990Z,100.00
2022-08-01T12:32:53.354Z,100.00
2022-08-01T12:35:25.501Z,100.00
2022-08-01T12:37:55.038Z,100.00
2022-08-01T12:40:30.294Z,100.00
2022-08-01T12:42:59.508Z,100.00
2022-08-01T12:45:28.276Z,100.00
2022-08-01T12:47:55.955Z,100.00
2022-08-01T12:50:25.109Z,100.00
2022-08-01T12:52:52.018Z,100.00
2022-08-01T12:55:19.525Z,100.00
2022-08-01T12:57:52.038Z,100.00
2022-08-01T13:00:26.644Z,100.00
2022-08-01T13:03:15.389Z,100.00
2022-08-01T13:05:49.451Z,100.00
2022-08-01T13:08:35.217Z,100.00
2022-08-01T13:11:22.379Z,100.00
2022-08-01T13:13:50.330Z,100.00
2022-08-01T13:16:30.396Z,100.00
2022-08-01T13:19:01.605Z,100.00
2022-08-01T13:21:53.073Z,100.00
2022-08-01T13:24:29.801Z,100.00
2022-08-01T13:27:00.771Z,100.00
2022-08-01T13:29:38.205Z,100.00
2022-08-01T13:32:28.709Z,100.00
2022-08-01T13:35:06.800Z,100.00
2022-08-01T13:37:33.707Z,100.00
2022-08-01T13:40:00.320Z,100.00
2022-08-01T13:42:27.024Z,100.00
2022-08-01T13:44:53.801Z,100.00
2022-08-01T13:47:31.099Z,100.00
2022-08-01T13:50:03.170Z,100.00
2022-08-01T13:52:30.747Z,100.00
2022-08-01T13:54:57.848Z,100.00
2022-08-01T13:57:24.491Z,100.00
2022-08-01T13:59:52.354Z,100.00
2022-08-01T14:02:20.380Z,100.00
2022-08-01T14:04:47.567Z,100.00
2022-08-01T14:07:14.926Z,100.00
2022-08-01T14:09:57.899Z,100.00
2022-08-01T14:12:29.895Z,100.00
2022-08-01T14:14:57.369Z,100.00
2022-08-01T14:17:24.312Z,100.00
2022-08-01T14:19:51.005Z,100.00
2022-08-01T14:22:17.605Z,100.00
2022-08-01T14:24:44.162Z,100.00
2022-08-01T14:27:11.268Z,100.00
2022-08-01T14:30:01.175Z,100.00
2022-08-01T14:32:28.639Z,100.00
2022-08-01T14:34:57.123Z,100.00
2022-08-01T14:37:29.176Z,100.00
2022-08-01T14:40:05.830Z,100.00
2022-08-01T14:42:34.733Z,100.00
2022-08-01T14:45:02.127Z,100.00
2022-08-01T14:47:28.869Z,100.00
2022-08-01T14:49:55.470Z,100.00
2022-08-01T14:52:22.380Z,100.00
2022-08-01T14:54:49.009Z,100.00
2022-08-01T14:57:19.189Z,100.00
2022-08-01T14:59:46.040Z,100.00
2022-08-01T15:02:13.718Z,100.00
2022-08-01T15:04:40.326Z,100.00
2022-08-01T15:07:06.940Z,100.00
2022-08-01T15:09:33.528Z,100.00
2022-08-01T15:12:00.660Z,100.00
2022-08-01T15:14:45.610Z,100.00
2022-08-01T15:17:12.198Z,100.00
2022-08-01T15:19:42.068Z,100.00
2022-08-01T15:22:09.866Z,100.00
2022-08-01T15:24:36.606Z,100.00
2022-08-01T15:27:03.392Z,100.00
2022-08-01T15:29:29.985Z,100.00
2022-08-01T15:31:56.534Z,100.00
2022-08-01T15:34:23.742Z,100.00
2022-08-01T15:36:50.400Z,100.00
2022-08-01T15:39:17.320Z,100.00
2022-08-01T15:41:44.050Z,100.00
2022-08-01T15:44:10.707Z,100.00
2022-08-01T15:46:37.353Z,100.00
2022-08-01T15:49:06.158Z,100.00
2022-08-01T15:51:33.283Z,100.00
2022-08-01T15:54:03.508Z,100.00
2022-08-01T15:56:31.040Z,100.00
2022-08-01T15:58:58.120Z,100.00
2022-08-01T16:01:26.813Z,100.00
2022-08-01T16:03:54.332Z,100.00
2022-08-01T16:06:21.034Z,100.00
2022-08-01T16:08:47.712Z,100.00
2022-08-01T16:11:14.375Z,100.00
2022-08-01T16:13:41.148Z,100.00
2022-08-01T16:16:08.686Z,100.00
2022-08-01T16:18:35.334Z,100.00
2022-08-01T16:21:02.041Z,100.00
2022-08-01T16:23:28.747Z,100.00
2022-08-01T16:25:55.593Z,100.00
2022-08-01T16:28:22.279Z,100.00
2022-08-01T16:30:55.892Z,100.00
2022-08-01T16:33:41.319Z,100.00
2022-08-01T16:36:17.330Z,100.00
2022-08-01T16:38:44.885Z,100.00
2022-08-01T16:41:19.523Z,100.00
2022-08-01T16:43:46.907Z,100.00
2022-08-01T16:46:25.203Z,100.00
2022-08-01T16:48:52.398Z,100.00
2022-08-01T16:51:19.938Z,100.00
2022-08-01T16:53:46.563Z,100.00
2022-08-01T16:56:13.124Z,100.00
2022-08-01T16:58:39.804Z,100.00
2022-08-01T17:01:58.526Z,100.00
2022-08-01T17:03:56.852Z,100.00
2022-08-01T17:06:26.207Z,100.00
2022-08-01T17:08:52.766Z,100.00
2022-08-01T17:11:19.330Z,100.00
2022-08-01T17:13:45.898Z,100.00
2022-08-01T17:16:12.622Z,100.00
2022-08-01T17:18:39.238Z,100.00
2022-08-01T17:21:06.055Z,100.00
2022-08-01T17:23:33.664Z,100.00
2022-08-01T17:26:00.442Z,100.00
2022-08-01T17:28:27.406Z,100.00
2022-08-01T17:30:54.270Z,100.00
2022-08-01T17:33:20.955Z,100.00
2022-08-01T17:35:47.611Z,100.00
2022-08-01T17:38:14.662Z,100.00
2022-08-01T17:40:41.499Z,100.00
2022-08-01T17:43:09.039Z,100.00
2022-08-01T17:45:39.283Z,100.00
2022-08-01T17:48:18.003Z,100.00
2022-08-01T17:50:46.102Z,100.00
2022-08-01T17:53:13.637Z,100.00
2022-08-01T17:55:53.783Z,100.00
2022-08-01T17:58:50.341Z,100.00
2022-08-01T18:01:15.190Z,100.00
2022-08-01T18:03:42.167Z,100.00
2022-08-01T18:06:09.825Z,100.00
2022-08-01T18:08:36.610Z,100.00
2022-08-01T18:11:03.274Z,100.00
2022-08-01T18:13:30.038Z,100.00
2022-08-01T18:15:57.183Z,100.00
2022-08-01T18:18:33.117Z,100.00
2022-08-01T18:21:01.981Z,100.00
2022-08-01T18:23:28.877Z,100.00
2022-08-01T18:25:55.735Z,100.00
2022-08-01T18:28:31.659Z,100.00
2022-08-01T18:31:02.106Z,100.00
2022-08-01T18:33:28.877Z,100.00
2022-08-01T18:35:59.272Z,61.06
2022-08-01T18:38:32.230Z,61.51
2022-08-01T18:41:00.908Z,61.82
2022-08-01T18:43:27.730Z,62.17
2022-08-01T18:45:56.993Z,62.32
2022-08-01T18:48:23.662Z,62.12
2022-08-01T18:50:50.317Z,62.42
2022-08-01T18:53:18.659Z,62.74
2022-08-01T18:55:45.386Z,63.17
2022-08-01T18:58:11.949Z,63.39
2022-08-01T19:00:39.847Z,63.59
2022-08-01T19:03:07.760Z,63.60
2022-08-01T19:05:35.143Z,63.77
2022-08-01T19:08:06.805Z,63.90
2022-08-01T19:10:39.203Z,63.95
2022-08-01T19:13:06.362Z,64.18
2022-08-01T19:15:33.157Z,64.53
2022-08-01T19:18:00.021Z,64.56
2022-08-01T19:20:27.257Z,64.65
2022-08-01T19:22:57.419Z,64.65
2022-08-01T19:25:25.319Z,64.98
2022-08-01T19:27:52.391Z,65.13
2022-08-01T19:30:19.477Z,64.82
2022-08-01T19:32:47.582Z,64.46
2022-08-01T19:35:16.890Z,64.76
2022-08-01T19:37:45.850Z,64.82
2022-08-01T19:40:27.019Z,64.81
2022-08-01T19:42:56.013Z,65.06
2022-08-01T19:45:23.049Z,64.84
2022-08-01T19:47:54.463Z,65.32
2022-08-01T19:50:27.767Z,65.57
2022-08-01T19:52:56.309Z,65.59
2022-08-01T19:55:27.325Z,65.64
2022-08-01T19:58:17.264Z,65.57
2022-08-01T20:00:42.685Z,66.08
2022-08-01T20:03:09.968Z,66.45
2022-08-01T20:05:37.303Z,66.47
2022-08-01T20:08:06.668Z,66.74
2022-08-01T20:10:34.206Z,66.67
2022-08-01T20:13:01.369Z,66.65
2022-08-01T20:15:29.284Z,66.81
2022-08-01T20:17:59.444Z,66.72
2022-08-01T20:20:26.823Z,67.10
2022-08-01T20:22:56.159Z,67.46
2022-08-01T20:25:23.771Z,67.55
2022-08-01T20:27:50.539Z,67.36
2022-08-01T20:30:17.113Z,67.40
2022-08-01T20:32:46.015Z,67.49
2022-08-01T20:35:12.729Z,67.60
2022-08-01T20:38:03.488Z,67.62
2022-08-01T20:40:30.318Z,67.70
2022-08-01T20:42:57.542Z,67.89
2022-08-01T20:45:25.970Z,67.90
2022-08-01T20:47:53.987Z,68.17
2022-08-01T20:50:53.794Z,68.07
2022-08-01T20:53:22.771Z,68.08
2022-08-01T20:55:51.534Z,67.97
2022-08-01T20:58:26.132Z,67.92
2022-08-01T21:00:54.316Z,67.96
2022-08-01T21:03:23.944Z,68.18
2022-08-01T21:06:02.474Z,68.48
2022-08-01T21:08:40.821Z,68.54
2022-08-01T21:11:17.271Z,68.79
2022-08-01T21:13:49.192Z,68.89
2022-08-01T21:16:24.301Z,69.13
2022-08-01T21:21:47.930Z,69.70
2022-08-01T21:24:19.114Z,69.84
2022-08-01T21:26:46.565Z,69.89
2022-08-01T21:29:14.074Z,70.08
2022-08-01T21:31:41.974Z,70.01
2022-08-01T21:34:09.378Z,70.30
2022-08-01T21:36:36.481Z,70.11
2022-08-01T21:39:05.936Z,69.82
2022-08-01T21:41:56.225Z,69.88
2022-08-01T21:44:20.032Z,69.84
2022-08-01T21:46:48.250Z,70.11
2022-08-01T21:49:15.108Z,70.33
2022-08-01T21:51:51.957Z,70.33
2022-08-01T21:54:58.436Z,70.49
2022-08-01T21:57:51.750Z,70.91
2022-08-01T22:00:25.977Z,71.18
2022-08-01T22:03:13.881Z,71.30
2022-08-01T22:05:51.068Z,71.30
2022-08-01T22:08:28.820Z,71.37
2022-08-01T22:11:03.752Z,71.24
2022-08-01T22:13:30.708Z,71.04
2022-08-01T22:15:58.150Z,71.13
2022-08-01T22:18:28.390Z,70.91
2022-08-01T22:20:55.433Z,70.98
2022-08-01T22:23:23.044Z,70.96
2022-08-01T22:25:54.077Z,71.11
2022-08-01T22:28:22.063Z,71.13
2022-08-01T22:30:52.349Z,70.99
2022-08-01T22:33:19.361Z,71.05
2022-08-01T22:35:50.308Z,71.25
2022-08-01T22:38:18.230Z,71.19
2022-08-01T22:40:49.037Z,71.12
2022-08-01T22:43:36.458Z,71.06
2022-08-01T22:46:22.933Z,71.42
2022-08-01T22:49:00.645Z,71.70
2022-08-01T22:51:32.853Z,71.66
2022-08-01T22:54:09.794Z,71.70
2022-08-01T22:56:39.281Z,71.72
2022-08-01T22:59:14.969Z,71.92
2022-08-01T23:01:48.009Z,72.14
2022-08-01T23:04:24.285Z,72.03
2022-08-01T23:07:04.593Z,72.25
2022-08-01T23:09:52.608Z,72.21
2022-08-01T23:12:21.019Z,72.56
2022-08-01T23:14:48.099Z,72.60
2022-08-01T23:17:26.900Z,72.71
2022-08-01T23:19:56.973Z,72.79
2022-08-01T23:22:23.947Z,72.79
2022-08-01T23:25:04.719Z,72.70
2022-08-01T23:27:54.087Z,72.51
2022-08-01T23:30:29.937Z,72.72
2022-08-01T23:32:56.872Z,72.64
2022-08-01T23:35:24.372Z,72.84
2022-08-01T23:37:51.619Z,72.85
2022-08-01T23:40:19.266Z,72.98
2022-08-01T23:42:46.043Z,72.96
2022-08-01T23:45:13.835Z,73.07
2022-08-01T23:47:40.849Z,73.17
2022-08-01T23:50:08.117Z,73.08
2022-08-01T23:52:36.768Z,73.30
2022-08-01T23:55:16.228Z,73.41
2022-08-01T23:57:43.538Z,73.98
